Time;durP1;ratioP1;P1;durP2;ratioP2;P2;SDS_P1;SDS_P2;PMS_P1;PMS_P2;Temp;Humidity;BMP_temperature;BMP_pressure;BME280_temperature;BME280_humidity;BME280_pressure;Samples;Min_cycle;Max_cycle;Signal;HPM_P1;HPM_P2
2022/01/27 00:00:45;;;;;;;39.23;19.87;;;;;4.00;102433.00;;;;10483958;28;20221;-82
2022/01/27 00:05:58;;;;;;;37.50;20.27;;;;;4.10;102420.00;;;;10451323;28;20193;-80
2022/01/27 00:11:08;;;;;;;35.97;20.73;;;;;4.00;102406.00;;;;10450344;28;20217;-80
2022/01/27 00:16:21;;;;;;;34.40;18.53;;;;;4.10;102411.00;;;;10450458;28;20202;-80
2022/01/27 00:21:25;;;;;;;30.77;18.50;;;;;4.10;102399.00;;;;10466746;28;20201;-80
2022/01/27 00:26:27;;;;;;;34.00;18.27;;;;;4.10;102395.00;;;;10449890;28;20570;-80
2022/01/27 00:31:29;;;;;;;35.43;19.17;;;;;4.10;102397.00;;;;10449454;28;20217;-80
2022/01/27 00:36:32;;;;;;;27.37;15.67;;;;;4.20;102392.00;;;;10482439;28;20212;-80
2022/01/27 00:41:35;;;;;;;32.33;18.57;;;;;4.20;102383.00;;;;10449762;28;20216;-80
2022/01/27 00:46:37;;;;;;;36.27;19.53;;;;;4.20;102371.00;;;;10448889;28;20280;-81
2022/01/27 00:51:43;;;;;;;33.80;19.37;;;;;4.30;102367.00;;;;10482103;28;20565;-80
2022/01/27 00:56:58;;;;;;;32.40;18.23;;;;;4.30;102349.00;;;;10433618;28;20209;-80
2022/01/27 01:02:14;;;;;;;29.00;17.70;;;;;4.30;102351.00;;;;10463596;28;20196;-80
2022/01/27 01:07:17;;;;;;;33.60;18.00;;;;;4.30;102352.00;;;;10448704;28;20215;-80
2022/01/27 01:33:33;;;;;;;28.47;16.27;;;;;4.40;102316.00;;;;10439806;28;20198;-80
2022/01/27 01:38:35;;;;;;;26.03;15.77;;;;;4.40;102298.00;;;;10422946;28;20210;-80
2022/01/27 01:43:38;;;;;;;37.40;18.10;;;;;4.40;102309.00;;;;10439530;28;20194;-80
2022/01/27 01:48:40;;;;;;;28.77;16.93;;;;;4.40;102302.00;;;;10422582;28;20558;-81
2022/01/27 01:53:42;;;;;;;30.53;17.57;;;;;4.40;102302.00;;;;10439296;28;20190;-81
2022/01/27 01:58:44;;;;;;;31.03;17.87;;;;;4.40;102299.00;;;;10439087;28;20242;-80
2022/01/27 02:03:47;;;;;;;31.73;18.20;;;;;4.40;102290.00;;;;10422088;28;20280;-78
2022/01/27 02:09:19;;;;;;;35.50;17.63;;;;;4.40;102293.00;;;;10451697;28;20216;-79
2022/01/27 02:19:34;;;;;;;26.83;16.13;;;;;4.40;102286.00;;;;10462513;28;20267;-78
2022/01/27 02:24:36;;;;;;;36.37;17.47;;;;;4.40;102265.00;;;;10468730;28;20212;-78
2022/01/27 02:29:40;;;;;;;30.00;16.27;;;;;4.40;102273.00;;;;10470239;28;20247;-78
2022/01/27 02:34:43;;;;;;;33.00;17.57;;;;;4.40;102272.00;;;;10470259;28;20610;-78
2022/01/27 02:39:45;;;;;;;36.20;17.73;;;;;4.50;102273.00;;;;10470082;28;20214;-78
2022/01/27 02:45:01;;;;;;;30.33;16.93;;;;;4.50;102261.00;;;;10469957;28;20673;-79
2022/01/27 02:50:05;;;;;;;31.87;17.30;;;;;4.50;102255.00;;;;10470700;28;20284;-78
2022/01/27 02:55:08;;;;;;;30.07;17.43;;;;;4.50;102252.00;;;;10486142;28;20281;-78
2022/01/27 03:00:11;;;;;;;36.03;18.37;;;;;4.50;102245.00;;;;10469375;28;20239;-79
2022/01/27 03:05:13;;;;;;;36.73;18.90;;;;;4.50;102223.00;;;;10469098;28;20675;-78
2022/01/27 03:10:17;;;;;;;36.27;18.37;;;;;4.50;102216.00;;;;10444077;28;20711;-78
2022/01/27 03:15:19;;;;;;;31.50;17.47;;;;;4.50;102213.00;;;;10427306;28;20196;-78
2022/01/27 03:20:21;;;;;;;37.13;18.70;;;;;4.50;102229.00;;;;10460275;28;20213;-78
2022/01/27 03:25:23;;;;;;;36.13;19.67;;;;;4.50;102217.00;;;;10451606;28;20201;-78
2022/01/27 03:30:25;;;;;;;36.53;18.90;;;;;4.50;102220.00;;;;10468214;28;20288;-78
2022/01/27 03:35:27;;;;;;;37.13;18.77;;;;;4.50;102221.00;;;;10445254;28;20657;-78
2022/01/27 03:40:29;;;;;;;35.63;18.97;;;;;4.50;102208.00;;;;10443305;28;20211;-78
2022/01/27 03:45:31;;;;;;;38.27;18.97;;;;;4.50;102209.00;;;;10426247;28;20198;-78
2022/01/27 03:50:33;;;;;;;35.77;19.83;;;;;4.50;102203.00;;;;10425958;28;20191;-78
2022/01/27 03:55:35;;;;;;;38.03;18.60;;;;;4.50;102183.00;;;;10425839;28;20646;-78
2022/01/27 04:00:38;;;;;;;39.93;20.13;;;;;4.50;102170.00;;;;10467587;28;20567;-78
2022/01/27 04:05:45;;;;;;;39.50;19.13;;;;;4.40;102175.00;;;;10483550;28;20213;-78
2022/01/27 04:10:48;;;;;;;37.63;19.27;;;;;4.20;102181.00;;;;10466314;28;20308;-78
2022/01/27 04:15:50;;;;;;;43.50;20.60;;;;;4.10;102167.00;;;;10466650;28;20197;-78
2022/01/27 04:20:52;;;;;;;42.00;20.23;;;;;4.10;102180.00;;;;10465864;28;20205;-78
2022/01/27 04:25:54;;;;;;;42.17;21.70;;;;;4.00;102173.00;;;;10465957;28;20629;-78
2022/01/27 04:30:58;;;;;;;45.13;21.53;;;;;3.90;102179.00;;;;10466079;28;20264;-78
2022/01/27 04:36:07;;;;;;;46.13;22.47;;;;;3.80;102149.00;;;;10465430;28;20190;-78
2022/01/27 04:41:22;;;;;;;44.57;23.77;;;;;3.80;102153.00;;;;10481753;28;20214;-78
2022/01/27 04:46:40;;;;;;;46.03;23.20;;;;;3.80;102158.00;;;;10448590;28;20212;-78
2022/01/27 04:51:43;;;;;;;47.33;22.13;;;;;3.80;102149.00;;;;10465122;28;20197;-79
2022/01/27 04:56:45;;;;;;;44.43;22.73;;;;;3.80;102144.00;;;;10465049;28;20196;-78
2022/01/27 05:01:59;;;;;;;47.80;24.07;;;;;3.80;102118.00;;;;10463955;28;20194;-78
2022/01/27 05:07:01;;;;;;;50.23;24.33;;;;;3.80;102131.00;;;;10464421;28;20206;-78
2022/01/27 05:12:12;;;;;;;49.20;25.37;;;;;3.70;102118.00;;;;10480788;28;20197;-78
2022/01/27 05:17:17;;;;;;;50.77;25.67;;;;;3.70;102106.00;;;;10477195;28;20279;-77
2022/01/27 05:22:19;;;;;;;48.70;22.40;;;;;3.80;102084.00;;;;10457889;28;20243;-77
2022/01/27 05:27:21;;;;;;;51.97;24.93;;;;;3.90;102074.00;;;;10464123;28;20213;-78
2022/01/27 05:32:24;;;;;;;59.03;26.93;;;;;4.00;102089.00;;;;10447546;28;20197;-78
2022/01/27 05:37:25;;;;;;;52.67;25.27;;;;;4.00;102107.00;;;;10480389;28;20746;-78
2022/01/27 05:42:27;;;;;;;63.87;25.10;;;;;3.90;102095.00;;;;10480666;28;20201;-78
2022/01/27 05:47:29;;;;;;;45.63;23.13;;;;;3.90;102076.00;;;;10447055;28;20189;-78
2022/01/27 05:52:32;;;;;;;49.83;24.57;;;;;3.90;102088.00;;;;10463641;28;20205;-78
2022/01/27 05:57:33;;;;;;;54.63;27.37;;;;;3.90;102095.00;;;;10450555;28;20263;-78
2022/01/27 06:02:36;;;;;;;51.87;26.63;;;;;4.00;102080.00;;;;10455511;28;20288;-79
2022/01/27 06:07:38;;;;;;;52.13;24.90;;;;;3.90;102077.00;;;;10504916;28;20660;-78
2022/01/27 06:12:56;;;;;;;55.47;27.67;;;;;3.80;102077.00;;;;10471838;28;20216;-78
2022/01/27 06:17:59;;;;;;;55.40;26.13;;;;;3.90;102069.00;;;;10454886;28;20209;-79
2022/01/27 06:23:01;;;;;;;56.97;26.50;;;;;4.00;102066.00;;;;10487587;28;20201;-78
2022/01/27 06:28:07;;;;;;;62.53;29.87;;;;;4.10;102080.00;;;;10470365;28;20225;-78
2022/01/27 06:33:09;;;;;;;55.37;26.03;;;;;4.20;102066.00;;;;10454415;28;20665;-78
2022/01/27 06:38:11;;;;;;;52.07;28.17;;;;;4.40;102059.00;;;;10470431;28;20877;-78
2022/01/27 06:43:14;;;;;;;53.50;26.10;;;;;4.50;102051.00;;;;10453962;28;20190;-78
2022/01/27 06:48:16;;;;;;;49.43;26.63;;;;;4.60;102055.00;;;;10453710;28;20190;-79
2022/01/27 06:53:18;;;;;;;53.00;26.13;;;;;4.70;102054.00;;;;10454009;28;20216;-78
2022/01/27 06:58:21;;;;;;;56.60;25.23;;;;;4.80;102053.00;;;;10503902;28;20206;-78
2022/01/27 07:03:23;;;;;;;53.43;25.93;;;;;4.90;102047.00;;;;10453644;28;20259;-78
2022/01/27 07:08:25;;;;;;;52.57;25.30;;;;;4.90;102037.00;;;;10453297;28;20225;-79
2022/01/27 07:13:27;;;;;;;48.03;22.83;;;;;5.00;102038.00;;;;10452563;28;20197;-78
2022/01/27 07:18:29;;;;;;;47.03;23.40;;;;;5.00;102020.00;;;;10452544;28;20209;-78
2022/01/27 07:23:31;;;;;;;48.90;24.63;;;;;5.00;102022.00;;;;10468854;28;20292;-79
2022/01/27 07:28:33;;;;;;;46.57;24.80;;;;;5.00;102026.00;;;;10468579;28;20212;-79
2022/01/27 07:33:35;;;;;;;49.90;25.53;;;;;5.00;102018.00;;;;10484777;28;20193;-79
2022/01/27 07:38:37;;;;;;;55.23;24.80;;;;;5.10;102015.00;;;;10467988;28;20304;-78
2022/01/27 07:43:40;;;;;;;46.80;23.10;;;;;5.20;102024.00;;;;10467828;28;20194;-78
2022/01/27 07:48:42;;;;;;;40.97;21.77;;;;;5.20;102027.00;;;;10484555;28;20189;-77
2022/01/27 07:53:44;;;;;;;55.63;24.00;;;;;5.30;102031.00;;;;10467802;28;20197;-77
2022/01/27 07:59:04;;;;;;;48.40;24.37;;;;;5.40;102024.00;;;;10465214;28;20209;-78
2022/01/27 08:04:06;;;;;;;48.33;24.33;;;;;5.60;102038.00;;;;10467356;28;20541;-80
2022/01/27 08:09:08;;;;;;;44.30;21.93;;;;;5.70;102045.00;;;;10462911;28;20217;-79
2022/01/27 08:14:10;;;;;;;52.07;23.73;;;;;5.70;102063.00;;;;10542759;28;20200;-78
2022/01/27 08:19:12;;;;;;;50.87;24.00;;;;;5.70;102074.00;;;;10462348;28;20225;-78
2022/01/27 08:24:15;;;;;;;45.20;24.13;;;;;5.70;102082.00;;;;10455218;28;20189;-78
2022/01/27 08:29:21;;;;;;;47.60;23.17;;;;;5.70;102070.00;;;;10433979;28;20650;-78
2022/01/27 08:34:44;;;;;;;43.20;21.87;;;;;5.80;102068.00;;;;10454243;28;20201;-78
2022/01/27 08:39:46;;;;;;;50.37;24.47;;;;;5.90;102058.00;;;;10448747;28;20212;-79
2022/01/27 08:44:48;;;;;;;43.97;22.17;;;;;5.90;102052.00;;;;10465194;28;20225;-78
2022/01/27 08:49:50;;;;;;;47.33;22.63;;;;;6.10;102049.00;;;;10453542;28;20219;-78
2022/01/27 08:54:52;;;;;;;46.37;22.87;;;;;6.30;102048.00;;;;10465259;28;20217;-79
2022/01/27 09:00:04;;;;;;;48.73;21.37;;;;;6.40;102039.00;;;;10446397;28;20201;-79
2022/01/27 09:05:06;;;;;;;41.87;22.03;;;;;6.40;102045.00;;;;10448111;28;20197;-79
2022/01/27 09:10:09;;;;;;;37.83;21.27;;;;;6.40;102043.00;;;;10462391;28;20279;-79
2022/01/27 09:15:12;;;;;;;41.27;22.10;;;;;6.60;102049.00;;;;10458530;28;20194;-79
2022/01/27 09:20:16;;;;;;;41.07;20.27;;;;;6.60;102044.00;;;;10430808;28;20206;-79
2022/01/27 09:25:26;;;;;;;45.57;22.13;;;;;6.80;102043.00;;;;10470442;28;20225;-79
2022/01/27 09:30:28;;;;;;;42.00;21.27;;;;;7.10;102044.00;;;;10444353;28;20182;-80
2022/01/27 09:35:31;;;;;;;45.90;23.63;;;;;7.30;102038.00;;;;10448086;28;20198;-80
2022/01/27 09:40:34;;;;;;;42.83;22.60;;;;;7.10;102039.00;;;;10454473;28;20198;-80
2022/01/27 09:45:38;;;;;;;47.40;23.63;;;;;7.10;102033.00;;;;10464876;28;20288;-80
2022/01/27 09:55:45;;;;;;;44.07;24.03;;;;;7.40;102057.00;;;;10475160;28;20201;-80
2022/01/27 10:00:47;;;;;;;49.20;23.47;;;;;7.60;102046.00;;;;10462879;28;20669;-80
2022/01/27 10:05:50;;;;;;;43.93;21.43;;;;;8.00;102058.00;;;;10456685;28;20210;-80
2022/01/27 10:10:54;;;;;;;45.23;23.87;;;;;7.90;102057.00;;;;10474702;28;20213;-81
2022/01/27 10:15:56;;;;;;;47.13;22.73;;;;;7.50;102066.00;;;;10454838;28;20538;-80
2022/01/27 10:21:01;;;;;;;39.87;21.07;;;;;7.30;102064.00;;;;10463073;28;20245;-80
2022/01/27 10:26:13;;;;;;;40.43;22.27;;;;;7.30;102079.00;;;;10470281;28;20197;-80
2022/01/27 10:31:21;;;;;;;40.70;21.07;;;;;7.40;102074.00;;;;10463178;28;20189;-81
2022/01/27 10:36:36;;;;;;;45.40;22.97;;;;;7.70;102074.00;;;;10464690;28;20657;-80
2022/01/27 10:41:53;;;;;;;47.60;22.13;;;;;7.90;102070.00;;;;10462228;28;20210;-81
2022/01/27 10:47:06;;;;;;;32.47;18.93;;;;;7.70;102065.00;;;;10452489;28;20272;-80
2022/01/27 10:52:16;;;;;;;40.03;20.57;;;;;7.60;102071.00;;;;10454130;28;20664;-80
2022/01/27 10:57:24;;;;;;;36.47;19.23;;;;;7.60;102060.00;;;;10461625;28;20190;-80
2022/01/27 11:02:26;;;;;;;36.40;19.13;;;;;7.60;102057.00;;;;10461864;28;20649;-81
2022/01/27 11:07:28;;;;;;;31.80;17.97;;;;;7.80;102045.00;;;;10444923;28;20217;-80
2022/01/27 11:12:30;;;;;;;35.50;18.87;;;;;7.70;102048.00;;;;10452708;28;20189;-80
2022/01/27 11:17:36;;;;;;;37.23;19.33;;;;;8.00;102031.00;;;;10452712;28;20193;-80
2022/01/27 11:28:03;;;;;;;33.33;18.43;;;;;8.10;102034.00;;;;10485521;28;20281;-80
2022/01/27 11:33:14;;;;;;;32.00;18.63;;;;;7.70;102044.00;;;;10472880;28;20224;-80
2022/01/27 11:38:31;;;;;;;54.10;22.47;;;;;7.50;102023.00;;;;10479244;28;20202;-80
2022/01/27 11:43:36;;;;;;;51.17;23.47;;;;;7.60;102016.00;;;;10458735;28;20224;-80
2022/01/27 11:48:38;;;;;;;70.80;28.80;;;;;7.60;102008.00;;;;10477136;28;20197;-81
2022/01/27 11:53:50;;;;;;;40.37;20.40;;;;;7.50;102019.00;;;;10497230;28;20653;-80
2022/01/27 11:58:55;;;;;;;36.70;19.67;;;;;7.50;102002.00;;;;10467681;28;20561;-80
2022/01/27 12:04:06;;;;;;;37.20;19.13;;;;;7.70;102011.00;;;;10441106;28;20208;-80
2022/01/27 12:09:18;;;;;;;35.60;19.97;;;;;7.90;101996.00;;;;10445096;28;20309;-81
2022/01/27 12:14:33;;;;;;;32.43;17.83;;;;;8.20;101994.00;;;;10473247;28;20197;-78
2022/01/27 12:20:02;;;;;;;30.93;16.43;;;;;8.10;101994.00;;;;10472282;28;20213;-77
2022/01/27 12:25:06;;;;;;;23.17;15.17;;;;;7.80;102002.00;;;;10451329;28;20220;-80
2022/01/27 12:30:09;;;;;;;28.53;14.90;;;;;7.80;101998.00;;;;10468921;28;20576;-80
2022/01/27 12:35:14;;;;;;;23.37;13.63;;;;;7.80;101994.00;;;;10480300;28;20596;-79
2022/01/27 12:40:23;;;;;;;25.87;15.40;;;;;7.90;101985.00;;;;10432950;28;20213;-81
2022/01/27 12:45:31;;;;;;;29.50;17.00;;;;;8.10;101989.00;;;;10468044;28;20301;-81
2022/01/27 12:50:35;;;;;;;25.67;15.23;;;;;8.10;101983.00;;;;10448339;28;20201;-81
2022/01/27 12:55:40;;;;;;;27.37;15.90;;;;;8.10;101985.00;;;;10465317;28;20250;-79
2022/01/27 13:00:48;;;;;;;30.13;15.47;;;;;7.90;101976.00;;;;10497724;28;20204;-82
2022/01/27 13:05:53;;;;;;;26.43;14.97;;;;;8.00;101970.00;;;;10514830;28;20579;-81
2022/01/27 13:11:02;;;;;;;21.47;14.97;;;;;7.90;101963.00;;;;10448677;28;20292;-80
2022/01/27 13:16:08;;;;;;;27.63;15.03;;;;;8.00;101970.00;;;;10448950;28;20197;-81
2022/01/27 13:21:29;;;;;;;21.40;13.83;;;;;8.00;101972.00;;;;10451974;28;20216;-80
2022/01/27 13:26:31;;;;;;;24.73;13.97;;;;;8.00;101965.00;;;;10448324;28;20283;-80
2022/01/27 13:31:33;;;;;;;21.50;13.20;;;;;8.10;101962.00;;;;10432060;28;20202;-81
2022/01/27 13:36:37;;;;;;;21.43;14.90;;;;;8.00;101969.00;;;;10465869;28;20201;-81
2022/01/27 13:41:42;;;;;;;20.47;14.00;;;;;7.90;101953.00;;;;10480190;28;20726;-82
2022/01/27 13:46:49;;;;;;;19.90;13.27;;;;;7.90;101964.00;;;;10464587;28;20194;-82
2022/01/27 13:51:54;;;;;;;20.63;12.97;;;;;7.90;101963.00;;;;10448538;28;20549;-82
2022/01/27 13:57:27;;;;;;;22.37;14.97;;;;;8.00;101962.00;;;;10409579;28;20189;-81
2022/01/27 14:02:31;;;;;;;24.27;14.63;;;;;8.00;101968.00;;;;10479508;28;20228;-82
2022/01/27 14:07:36;;;;;;;24.27;15.83;;;;;8.10;101962.00;;;;10498622;28;20229;-81
2022/01/27 14:12:55;;;;;;;23.63;15.70;;;;;8.10;101971.00;;;;10491765;28;20231;-80
2022/01/27 14:18:00;;;;;;;23.63;16.23;;;;;8.10;101976.00;;;;10483637;28;20668;-82
2022/01/27 14:23:18;;;;;;;24.80;15.97;;;;;8.10;101983.00;;;;10487674;28;20296;-81
2022/01/27 14:28:23;;;;;;;25.50;16.63;;;;;8.10;101991.00;;;;10479403;28;20194;-81
2022/01/27 14:33:25;;;;;;;22.87;14.77;;;;;8.20;101995.00;;;;10439658;28;20252;-80
2022/01/27 14:38:27;;;;;;;31.60;17.43;;;;;8.30;101982.00;;;;10486144;28;20204;-80
2022/01/27 14:43:31;;;;;;;27.70;17.33;;;;;8.40;102002.00;;;;10470738;28;20228;-80
2022/01/27 14:48:37;;;;;;;23.27;16.33;;;;;8.60;102007.00;;;;10471475;28;20233;-80
2022/01/27 14:53:42;;;;;;;25.03;14.23;;;;;8.60;102003.00;;;;10469962;28;20190;-80
2022/01/27 14:58:44;;;;;;;20.83;14.77;;;;;8.70;102001.00;;;;10455594;28;20611;-79
2022/01/27 15:03:46;;;;;;;24.97;16.50;;;;;8.70;102011.00;;;;10452241;28;20296;-80
2022/01/27 15:08:49;;;;;;;23.80;15.67;;;;;8.70;102008.00;;;;10454861;28;20309;-80
2022/01/27 15:18:48;;;;;;;29.57;18.50;;;;;8.80;102006.00;;;;10492325;28;20206;-80
2022/01/27 15:19:37;;;;;;;25.50;16.83;;;;;8.90;102017.00;;;;10459208;28;20244;-80
2022/01/27 15:24:41;;;;;;;28.60;16.07;;;;;8.80;102017.00;;;;10452750;28;20201;-80
2022/01/27 15:29:43;;;;;;;27.07;16.97;;;;;8.80;102028.00;;;;10449728;28;20259;-80
2022/01/27 15:34:45;;;;;;;27.07;16.47;;;;;8.80;102036.00;;;;10483550;28;20186;-79
2022/01/27 15:39:51;;;;;;;25.20;16.57;;;;;8.90;102027.00;;;;10477296;28;20206;-79
2022/01/27 15:44:53;;;;;;;23.23;17.80;;;;;8.90;102025.00;;;;10467144;28;20193;-79
2022/01/27 15:49:56;;;;;;;28.50;16.67;;;;;8.80;102034.00;;;;10458692;28;20203;-79
2022/01/27 15:55:00;;;;;;;27.47;17.30;;;;;8.80;102035.00;;;;10442602;28;20460;-80
2022/01/27 16:00:05;;;;;;;28.67;17.07;;;;;8.80;102046.00;;;;10462155;28;20209;-79
2022/01/27 16:05:13;;;;;;;22.17;16.10;;;;;8.70;102045.00;;;;10473023;28;20696;-79
2022/01/27 16:10:16;;;;;;;22.03;15.80;;;;;8.70;102033.00;;;;10498931;28;20240;-79
2022/01/27 16:15:19;;;;;;;23.13;16.67;;;;;8.60;102018.00;;;;10481961;28;20193;-79
2022/01/27 16:20:23;;;;;;;22.70;15.70;;;;;8.70;102041.00;;;;10455139;28;20214;-78
2022/01/27 16:25:26;;;;;;;26.23;16.27;;;;;8.70;102041.00;;;;10478268;28;20198;-78
2022/01/27 16:30:28;;;;;;;22.87;14.93;;;;;8.60;102055.00;;;;10452114;28;20679;-79
2022/01/27 16:35:30;;;;;;;19.57;13.10;;;;;8.60;102065.00;;;;10456165;28;20233;-79
2022/01/27 16:40:33;;;;;;;18.00;12.97;;;;;8.70;102086.00;;;;10464572;28;20228;-79
2022/01/27 16:45:35;;;;;;;17.90;10.90;;;;;8.80;102090.00;;;;10447738;28;20511;-80
2022/01/27 16:50:38;;;;;;;19.47;9.70;;;;;8.80;102106.00;;;;10447839;28;20240;-79
2022/01/27 16:55:41;;;;;;;23.47;10.67;;;;;8.80;102117.00;;;;10447086;28;20228;-79
2022/01/27 17:00:43;;;;;;;16.20;10.50;;;;;8.70;102121.00;;;;10446918;28;20305;-79
2022/01/27 17:05:45;;;;;;;24.80;10.73;;;;;8.70;102138.00;;;;10423932;28;20224;-79
2022/01/27 17:10:48;;;;;;;16.77;10.37;;;;;8.60;102149.00;;;;10452144;28;20235;-78
2022/01/27 17:15:50;;;;;;;19.13;9.70;;;;;8.50;102148.00;;;;10479321;28;20607;-79
2022/01/27 17:20:53;;;;;;;16.70;9.43;;;;;8.40;102145.00;;;;10447057;28;20206;-79
2022/01/27 17:25:55;;;;;;;12.63;8.80;;;;;8.30;102174.00;;;;10462283;28;20182;-79
2022/01/27 17:30:57;;;;;;;19.30;9.63;;;;;8.10;102174.00;;;;10479328;28;20189;-79
2022/01/27 17:35:59;;;;;;;18.13;9.67;;;;;7.80;102175.00;;;;10446322;28;20194;-79
2022/01/27 17:41:02;;;;;;;16.80;10.27;;;;;7.70;102186.00;;;;10447546;28;20618;-79
2022/01/27 17:46:04;;;;;;;20.07;11.33;;;;;7.60;102182.00;;;;10462396;28;20198;-79
2022/01/27 17:51:08;;;;;;;23.23;12.50;;;;;7.50;102176.00;;;;10462419;28;20217;-79
2022/01/27 17:56:10;;;;;;;13.53;9.70;;;;;7.40;102183.00;;;;10462917;28;20224;-78
2022/01/27 18:01:12;;;;;;;18.00;10.17;;;;;7.30;102192.00;;;;10445889;28;20212;-79
2022/01/27 18:06:14;;;;;;;23.23;10.37;;;;;7.30;102208.00;;;;10462388;28;20209;-79
2022/01/27 18:11:23;;;;;;;13.33;8.93;;;;;7.20;102205.00;;;;10462796;28;20219;-79
2022/01/27 18:16:25;;;;;;;15.87;9.83;;;;;7.10;102211.00;;;;10446446;28;20243;-78
2022/01/27 18:21:27;;;;;;;15.27;10.97;;;;;7.00;102228.00;;;;10461862;28;20288;-79
2022/01/27 18:26:29;;;;;;;18.10;10.87;;;;;7.10;102224.00;;;;10450004;28;20196;-79
2022/01/27 18:31:33;;;;;;;26.57;11.17;;;;;7.20;102234.00;;;;10430723;28;20364;-79
2022/01/27 18:36:35;;;;;;;22.30;11.20;;;;;7.30;102244.00;;;;10463823;28;20293;-79
2022/01/27 18:41:37;;;;;;;18.27;10.73;;;;;7.30;102256.00;;;;10431569;28;20206;-78
2022/01/27 18:46:39;;;;;;;21.00;11.20;;;;;7.30;102257.00;;;;10435598;28;20296;-78
2022/01/27 18:51:42;;;;;;;24.07;11.60;;;;;7.20;102266.00;;;;10471460;28;20645;-78
2022/01/27 18:56:44;;;;;;;22.53;11.37;;;;;7.10;102268.00;;;;10438595;28;20347;-78
2022/01/27 19:01:47;;;;;;;23.87;11.93;;;;;7.20;102279.00;;;;10437036;28;20226;-78
2022/01/27 19:06:48;;;;;;;23.43;11.90;;;;;7.20;102284.00;;;;10425451;28;21005;-78
2022/01/27 19:11:50;;;;;;;23.63;12.47;;;;;7.10;102284.00;;;;10465213;28;20766;-79
2022/01/27 19:16:52;;;;;;;24.87;13.07;;;;;7.10;102299.00;;;;10499891;28;20190;-80
2022/01/27 19:21:55;;;;;;;23.43;13.23;;;;;7.10;102309.00;;;;10453757;28;20271;-79
2022/01/27 19:27:00;;;;;;;23.23;13.73;;;;;7.20;102325.00;;;;10439156;28;20194;-79
2022/01/27 19:32:07;;;;;;;24.17;14.23;;;;;7.30;102325.00;;;;10459986;28;20204;-77
2022/01/27 19:37:10;;;;;;;24.47;14.60;;;;;7.30;102330.00;;;;10483956;28;20217;-77
2022/01/27 19:42:12;;;;;;;27.17;14.60;;;;;7.40;102339.00;;;;10426042;28;20682;-77
2022/01/27 19:47:30;;;;;;;22.93;14.40;;;;;7.30;102341.00;;;;10422007;28;20746;-78
2022/01/27 19:52:33;;;;;;;26.13;15.57;;;;;7.10;102341.00;;;;10427302;28;20861;-77
2022/01/27 19:57:35;;;;;;;26.83;15.40;;;;;7.10;102359.00;;;;10449563;28;20193;-76
2022/01/27 20:02:39;;;;;;;24.23;15.27;;;;;7.20;102359.00;;;;10465220;28;20214;-78
2022/01/27 20:07:50;;;;;;;29.40;15.60;;;;;7.10;102366.00;;;;10443621;28;20219;-77
2022/01/27 20:12:52;;;;;;;32.27;15.93;;;;;7.00;102366.00;;;;10437854;28;20197;-77
2022/01/27 20:17:54;;;;;;;31.60;16.07;;;;;7.00;102365.00;;;;10498289;28;20323;-78
2022/01/27 20:22:57;;;;;;;24.67;14.80;;;;;6.90;102378.00;;;;10502586;28;20214;-77
2022/01/27 20:28:01;;;;;;;30.67;16.27;;;;;6.80;102403.00;;;;10458900;28;20193;-77
2022/01/27 20:33:04;;;;;;;31.03;15.27;;;;;6.90;102397.00;;;;10448004;28;20189;-77
2022/01/27 20:38:07;;;;;;;23.67;14.50;;;;;6.90;102403.00;;;;10464932;28;20197;-76
2022/01/27 20:43:13;;;;;;;30.53;14.63;;;;;6.80;102413.00;;;;10448052;28;20304;-78
2022/01/27 20:48:21;;;;;;;32.37;16.23;;;;;6.70;102412.00;;;;10464039;28;20204;-77
2022/01/27 20:53:27;;;;;;;24.00;15.10;;;;;6.60;102415.00;;;;10480130;28;20243;-77
2022/01/27 20:58:29;;;;;;;27.43;15.53;;;;;6.70;102425.00;;;;10442266;28;20217;-77
2022/01/27 21:03:30;;;;;;;27.53;13.60;;;;;6.70;102430.00;;;;10440265;28;20681;-77
2022/01/27 21:08:33;;;;;;;24.47;13.87;;;;;6.60;102435.00;;;;10429455;28;20225;-77
2022/01/27 21:13:34;;;;;;;26.27;13.60;;;;;6.60;102443.00;;;;10445824;28;20213;-77
2022/01/27 21:18:36;;;;;;;23.73;12.73;;;;;6.60;102452.00;;;;10453783;28;20185;-77
2022/01/27 21:23:40;;;;;;;28.90;13.57;;;;;6.60;102454.00;;;;10439109;28;20225;-77
2022/01/27 21:28:42;;;;;;;23.63;11.63;;;;;6.60;102452.00;;;;10430241;28;20198;-78
2022/01/27 21:33:45;;;;;;;23.57;11.57;;;;;6.60;102472.00;;;;10448732;28;20225;-80
2022/01/27 21:39:07;;;;;;;22.37;12.37;;;;;6.50;102484.00;;;;10464425;28;20269;-78
2022/01/27 21:44:09;;;;;;;27.20;10.97;;;;;6.40;102481.00;;;;10435460;28;20589;-78
2022/01/27 21:49:11;;;;;;;21.73;10.13;;;;;6.40;102490.00;;;;10466976;28;20828;-79
2022/01/27 21:54:13;;;;;;;16.20;9.10;;;;;6.50;102506.00;;;;10445706;28;20213;-79
2022/01/27 21:59:20;;;;;;;16.97;9.10;;;;;6.50;102509.00;;;;10444719;28;20193;-78
2022/01/27 22:04:22;;;;;;;19.70;9.47;;;;;6.40;102509.00;;;;10450368;28;20253;-78
2022/01/27 22:09:25;;;;;;;13.20;8.90;;;;;6.20;102518.00;;;;10448825;28;20437;-79
2022/01/27 22:14:27;;;;;;;18.53;9.37;;;;;6.00;102521.00;;;;10412906;28;20629;-79
2022/01/27 22:19:29;;;;;;;13.83;8.20;;;;;5.80;102526.00;;;;10457108;28;20290;-78
2022/01/27 22:24:31;;;;;;;20.37;8.93;;;;;5.70;102526.00;;;;10445701;28;20194;-78
2022/01/27 22:29:33;;;;;;;18.87;9.80;;;;;5.70;102533.00;;;;10458452;28;20214;-77
2022/01/27 22:34:35;;;;;;;17.83;8.97;;;;;5.70;102542.00;;;;10448251;28;20204;-78
2022/01/27 22:39:37;;;;;;;19.63;9.27;;;;;5.60;102545.00;;;;10442421;28;20213;-79
2022/01/27 22:44:57;;;;;;;15.37;8.47;;;;;5.50;102555.00;;;;10455525;28;20224;-78
2022/01/27 22:50:02;;;;;;;22.97;9.53;;;;;5.60;102549.00;;;;10477694;28;20205;-79
2022/01/27 22:55:05;;;;;;;19.37;9.07;;;;;5.60;102565.00;;;;10459391;28;20240;-79
2022/01/27 23:00:13;;;;;;;17.20;8.37;;;;;5.70;102558.00;;;;10454956;28;20206;-78
2022/01/27 23:05:15;;;;;;;21.10;7.60;;;;;5.90;102565.00;;;;10477935;28;20205;-79
2022/01/27 23:10:17;;;;;;;19.47;6.10;;;;;6.00;102571.00;;;;10447198;28;20229;-78
2022/01/27 23:15:36;;;;;;;17.43;6.83;;;;;6.00;102573.00;;;;10478431;28;20891;-78
2022/01/27 23:20:49;;;;;;;17.33;6.47;;;;;5.90;102571.00;;;;10466623;28;20209;-77
2022/01/27 23:25:58;;;;;;;14.27;5.67;;;;;5.80;102585.00;;;;10485132;28;20232;-77
2022/01/27 23:31:17;;;;;;;12.47;4.63;;;;;5.90;102583.00;;;;10484797;28;20190;-76
2022/01/27 23:36:51;;;;;;;14.80;5.43;;;;;5.80;102594.00;;;;10444429;28;20209;-76
2022/01/27 23:41:52;;;;;;;11.53;4.90;;;;;5.80;102595.00;;;;10480218;28;20694;-77
2022/01/27 23:47:16;;;;;;;19.23;4.40;;;;;5.90;102602.00;;;;10443271;28;20202;-78
